Time;durP1;ratioP1;P1;durP2;ratioP2;P2;SDS_P1;SDS_P2;PMS_P1;PMS_P2;Temp;Humidity;BMP_temperature;BMP_pressure;BME280_temperature;BME280_humidity;BME280_pressure;Samples;Min_cycle;Max_cycle;Signal;HPM_P1;HPM_P2
2023/07/08 00:00:53;;;;;;;12.45;7.18;;;;;;;21.23;51.75;100486.78;4988274;28;22733;-76
2023/07/08 00:03:20;;;;;;;10.75;7.25;;;;;;;21.21;51.22;100477.13;5007635;28;20050;-77
2023/07/08 00:05:51;;;;;;;9.82;6.75;;;;;;;21.22;51.36;100481.53;4988273;28;20052;-79
2023/07/08 00:08:19;;;;;;;10.73;7.00;;;;;;;21.11;50.99;100460.06;5002085;28;20050;-76
2023/07/08 00:10:47;;;;;;;10.80;7.35;;;;;;;21.04;51.28;100454.38;4984099;28;20757;-79
2023/07/08 00:13:13;;;;;;;12.00;7.70;;;;;;;21.09;50.88;100470.13;4988337;28;20057;-78
2023/07/08 00:15:40;;;;;;;10.70;7.10;;;;;;;21.10;51.16;100469.13;4986001;28;20061;-78
2023/07/08 00:18:51;;;;;;;11.85;6.82;;;;;;;21.11;51.51;100465.44;4984678;28;20133;-79
2023/07/08 00:22:56;;;;;;;;;;;;;;;;;;;;;
2023/07/08 00:25:08;;;;;;;9.40;6.13;;;;;;;21.08;51.07;100447.75;4911856;29;20059;-77
2023/07/08 00:27:34;;;;;;;13.25;7.10;;;;;;;21.10;50.89;100455.66;4923358;28;20103;-78
2023/07/08 00:30:01;;;;;;;8.60;6.63;;;;;;;21.14;51.26;100465.16;4986851;28;20483;-76
2023/07/08 00:32:28;;;;;;;11.70;7.03;;;;;;;21.09;50.97;100464.75;4998466;28;20046;-78
2023/07/08 00:34:54;;;;;;;8.60;6.35;;;;;;;20.97;50.96;100445.13;4990216;28;20046;-77
2023/07/08 00:37:21;;;;;;;9.68;6.50;;;;;;;20.90;51.17;100439.47;4999038;28;20651;-77
2023/07/08 00:39:47;;;;;;;9.45;6.82;;;;;;;20.99;51.34;100457.47;4989017;28;20048;-78
2023/07/08 00:42:19;;;;;;;9.45;6.80;;;;;;;20.96;51.52;100456.88;4986937;28;20052;-78
2023/07/08 00:44:46;;;;;;;9.70;6.50;;;;;;;20.83;51.83;100454.44;5002415;28;20124;-78
2023/07/08 00:47:15;;;;;;;8.60;6.22;;;;;;;20.89;51.73;100466.53;4982332;28;20046;-78
2023/07/08 00:49:57;;;;;;;10.57;6.47;;;;;;;20.84;51.54;100463.38;5007938;28;20123;-78
2023/07/08 00:52:29;;;;;;;9.13;6.70;;;;;;;20.84;51.61;100463.38;4987685;28;20062;-77
2023/07/08 00:55:04;;;;;;;11.38;6.85;;;;;;;20.74;51.96;100457.13;5001815;28;20054;-77
2023/07/08 00:57:35;;;;;;;9.68;6.00;;;;;;;20.78;51.77;100469.31;4981871;28;20630;-77
2023/07/08 01:00:08;;;;;;;9.48;6.72;;;;;;;20.78;52.09;100474.69;4986235;28;20066;-78
2023/07/08 01:02:42;;;;;;;9.70;6.20;;;;;;;20.57;52.50;100435.22;5002023;28;20076;-77
2023/07/08 01:05:15;;;;;;;9.10;6.72;;;;;;;20.84;52.71;100475.00;4991344;28;20046;-76
2023/07/08 01:07:43;;;;;;;7.93;5.88;;;;;;;20.85;52.93;100483.91;5001264;28;20045;-76
2023/07/08 01:10:17;;;;;;;9.82;6.70;;;;;;;20.74;53.00;100465.19;4991397;28;20042;-76
2023/07/08 01:12:49;;;;;;;9.18;7.00;;;;;;;20.62;53.00;100465.25;5003667;28;20140;-77
2023/07/08 01:15:16;;;;;;;8.93;6.28;;;;;;;20.70;52.88;100477.19;4985902;28;20093;-77
2023/07/08 01:17:44;;;;;;;9.65;6.50;;;;;;;20.62;52.76;100470.63;4981029;28;20423;-76
2023/07/08 01:20:13;;;;;;;9.32;6.20;;;;;;;20.55;52.52;100463.25;5003749;28;20080;-77
2023/07/08 01:22:41;;;;;;;9.88;6.63;;;;;;;20.60;52.65;100469.09;4994090;28;21403;-77
2023/07/08 01:25:09;;;;;;;9.43;6.63;;;;;;;20.65;52.52;100478.44;4982338;28;20041;-77
2023/07/08 01:27:39;;;;;;;9.90;6.47;;;;;;;20.49;52.34;100459.25;4980208;28;20265;-77
2023/07/08 01:30:07;;;;;;;9.57;6.63;;;;;;;20.58;52.84;100479.13;4990257;28;20062;-76
2023/07/08 01:32:39;;;;;;;9.85;6.45;;;;;;;20.56;52.80;100478.41;5004222;28;20046;-76
2023/07/08 01:35:09;;;;;;;9.27;6.88;;;;;;;20.48;52.91;100468.31;4982215;28;20120;-77
2023/07/08 01:37:39;;;;;;;10.23;6.78;;;;;;;20.51;52.90;100472.56;4986122;28;20546;-76
2023/07/08 01:40:21;;;;;;;9.68;6.18;;;;;;;20.54;53.37;100472.31;5003237;28;20049;-77
2023/07/08 01:42:48;;;;;;;10.52;6.32;;;;;;;20.37;53.17;100446.03;4994356;28;20069;-78
2023/07/08 01:45:17;;;;;;;10.40;6.40;;;;;;;20.30;53.38;100443.00;4990016;28;20046;-78
2023/07/08 01:47:50;;;;;;;8.25;5.90;;;;;;;20.48;54.27;100471.00;4962284;28;20081;-78
2023/07/08 01:50:19;;;;;;;10.23;6.63;;;;;;;20.49;53.71;100461.94;5004224;28;20042;-78
2023/07/08 01:52:48;;;;;;;10.25;6.70;;;;;;;20.41;53.82;100463.59;4995647;28;20104;-77
2023/07/08 01:55:14;;;;;;;9.20;6.47;;;;;;;20.42;53.68;100466.16;4990867;28;20046;-77
2023/07/08 01:57:41;;;;;;;10.95;6.68;;;;;;;20.30;53.68;100445.69;5006007;28;20064;-80
2023/07/08 02:00:09;;;;;;;9.55;6.60;;;;;;;20.06;53.96;100413.69;4989271;28;20569;-76
2023/07/08 02:02:36;;;;;;;11.45;7.07;;;;;;;20.30;54.17;100462.66;5006395;28;20057;-78
2023/07/08 02:05:02;;;;;;;11.77;7.13;;;;;;;20.22;54.50;100446.34;5002794;28;20447;-76
2023/07/08 02:07:29;;;;;;;11.27;6.70;;;;;;;20.24;54.60;100456.97;4986986;28;20140;-76
2023/07/08 02:09:55;;;;;;;8.75;6.43;;;;;;;20.23;54.94;100452.56;4988963;28;20053;-77
2023/07/08 02:12:22;;;;;;;9.57;6.22;;;;;;;20.21;55.30;100455.38;4990065;28;20061;-76
2023/07/08 02:14:49;;;;;;;9.48;6.63;;;;;;;20.03;55.74;100418.47;5004525;28;20054;-78
2023/07/08 02:17:16;;;;;;;11.07;7.00;;;;;;;20.25;55.76;100458.66;4986241;28;20140;-78
2023/07/08 02:19:43;;;;;;;10.45;7.25;;;;;;;20.22;55.68;100454.41;5008381;28;20042;-78
2023/07/08 02:22:10;;;;;;;9.73;6.63;;;;;;;20.18;54.83;100444.88;5003616;28;20066;-78
2023/07/08 02:24:37;;;;;;;8.35;6.50;;;;;;;20.12;54.97;100444.59;5004868;28;20069;-79
2023/07/08 02:27:04;;;;;;;9.15;7.00;;;;;;;19.96;54.94;100423.53;5000611;28;20081;-75
2023/07/08 02:29:32;;;;;;;8.18;6.13;;;;;;;19.95;54.78;100427.22;5016935;28;20088;-78
2023/07/08 02:31:58;;;;;;;9.75;6.70;;;;;;;19.82;55.17;100415.81;5003158;28;20132;-79
2023/07/08 02:34:25;;;;;;;11.57;6.25;;;;;;;19.86;54.93;100417.22;5004748;28;20046;-78
2023/07/08 02:36:52;;;;;;;8.90;6.43;;;;;;;19.85;55.51;100432.50;5012938;28;20042;-78
2023/07/08 02:39:18;;;;;;;10.38;6.57;;;;;;;19.92;55.33;100441.75;4986563;28;20049;-78
2023/07/08 02:41:45;;;;;;;9.95;6.80;;;;;;;19.87;55.36;100435.06;4995361;28;20416;-77
2023/07/08 02:44:11;;;;;;;9.30;6.82;;;;;;;19.82;55.83;100427.41;4999953;28;20133;-78
2023/07/08 02:46:38;;;;;;;9.43;6.53;;;;;;;19.83;55.76;100436.31;5000130;28;20041;-77
2023/07/08 02:49:05;;;;;;;9.48;6.40;;;;;;;19.85;55.73;100447.75;4990686;28;20069;-77
2023/07/08 02:51:32;;;;;;;7.60;6.00;;;;;;;19.79;55.98;100443.78;5010523;28;20092;-77
2023/07/08 02:53:58;;;;;;;9.20;6.80;;;;;;;19.62;56.43;100428.22;4988966;28;20554;-78
2023/07/08 02:56:28;;;;;;;8.10;6.40;;;;;;;19.62;56.45;100428.22;4985911;28;20050;-77
2023/07/08 02:58:54;;;;;;;9.73;6.80;;;;;;;19.67;57.21;100452.88;4993938;28;20652;-78
2023/07/08 03:01:21;;;;;;;10.43;6.63;;;;;;;19.63;56.96;100464.00;4981774;28;20099;-77
2023/07/08 03:03:48;;;;;;;11.35;6.47;;;;;;;19.60;57.70;100463.28;5006777;28;20045;-77
2023/07/08 03:06:15;;;;;;;9.68;6.65;;;;;;;19.54;57.62;100461.09;4984512;28;20042;-78
2023/07/08 03:08:42;;;;;;;9.25;6.35;;;;;;;19.46;58.61;100468.06;4979417;28;20045;-78
2023/07/08 03:11:12;;;;;;;9.43;6.75;;;;;;;19.25;58.44;100438.44;4986419;28;20061;-78
2023/07/08 03:13:38;;;;;;;8.32;6.55;;;;;;;19.40;58.83;100465.88;4989680;28;20140;-79
2023/07/08 03:16:12;;;;;;;9.55;6.65;;;;;;;19.37;58.97;100456.22;4986869;28;20634;-76
2023/07/08 03:18:45;;;;;;;9.52;6.70;;;;;;;19.40;58.88;100449.75;4997512;28;20042;-77
2023/07/08 03:21:15;;;;;;;9.50;6.35;;;;;;;19.50;58.96;100483.84;4985878;28;20324;-77
2023/07/08 03:23:42;;;;;;;9.32;6.10;;;;;;;19.35;59.41;100470.78;5004628;28;20105;-77
2023/07/08 03:26:18;;;;;;;10.13;6.85;;;;;;;19.42;59.58;100483.56;4981889;28;20802;-78
2023/07/08 03:28:45;;;;;;;9.13;6.45;;;;;;;19.26;59.88;100467.00;4979615;28;20140;-76
2023/07/08 03:31:12;;;;;;;8.38;6.55;;;;;;;19.37;59.77;100491.13;4987064;28;20061;-76
2023/07/08 03:33:39;;;;;;;9.52;6.53;;;;;;;19.14;60.15;100457.28;4984771;28;20045;-77
2023/07/08 03:36:12;;;;;;;10.52;7.00;;;;;;;19.23;60.23;100484.22;4984209;28;20534;-78
2023/07/08 03:38:39;;;;;;;9.45;6.75;;;;;;;19.19;60.67;100489.97;4977323;28;20048;-79
2023/07/08 03:41:05;;;;;;;9.43;6.18;;;;;;;19.14;60.89;100493.03;5001136;28;20089;-78
2023/07/08 03:43:32;;;;;;;9.60;6.53;;;;;;;19.10;61.63;100486.19;4987579;28;20065;-79
2023/07/08 03:45:59;;;;;;;9.80;6.43;;;;;;;19.19;61.68;100493.53;4998122;28;20038;-78
2023/07/08 03:48:26;;;;;;;8.55;6.00;;;;;;;19.20;61.47;100495.19;4978525;28;20436;-78
2023/07/08 03:50:52;;;;;;;9.40;6.38;;;;;;;19.27;61.04;100500.94;4986391;28;20124;-79
2023/07/08 03:53:22;;;;;;;10.35;6.55;;;;;;;19.26;61.53;100491.16;4985082;28;20141;-76
2023/07/08 03:55:49;;;;;;;10.48;6.63;;;;;;;19.36;61.31;100496.66;4984982;28;20133;-78
2023/07/08 03:58:15;;;;;;;8.20;6.25;;;;;;;19.26;60.81;100472.38;4979293;28;20133;-77
2023/07/08 04:00:42;;;;;;;10.05;6.00;;;;;;;19.42;60.79;100490.75;4982363;28;20136;-78
2023/07/08 04:03:11;;;;;;;7.85;6.07;;;;;;;19.50;60.48;100483.84;5003357;28;20064;-77
2023/07/08 04:05:38;;;;;;;8.90;5.45;;;;;;;19.49;59.79;100475.88;4991472;28;20399;-78
2023/07/08 04:08:05;;;;;;;10.80;6.20;;;;;;;19.61;59.14;100480.25;4986396;28;20403;-77
2023/07/08 04:10:31;;;;;;;10.18;6.35;;;;;;;19.68;58.35;100469.81;4983799;28;20579;-78
2023/07/08 04:13:01;;;;;;;9.32;6.00;;;;;;;19.78;57.73;100476.16;4981943;28;20531;-78
2023/07/08 04:15:31;;;;;;;7.43;5.60;;;;;;;19.70;56.79;100460.66;4964045;28;20395;-77
2023/07/08 04:17:58;;;;;;;8.48;6.18;;;;;;;19.84;58.09;100473.78;4983275;28;20099;-76
2023/07/08 04:20:25;;;;;;;8.75;6.35;;;;;;;19.92;55.93;100476.69;4982353;28;20088;-77
2023/07/08 04:22:52;;;;;;;7.57;5.93;;;;;;;20.03;55.82;100494.59;5012609;28;20207;-76
2023/07/08 04:25:19;;;;;;;9.40;5.90;;;;;;;20.05;55.25;100497.16;4989539;28;20142;-79
2023/07/08 04:27:46;;;;;;;7.50;5.45;;;;;;;19.98;54.79;100467.28;4987391;28;20047;-77
2023/07/08 04:30:23;;;;;;;8.05;5.75;;;;;;;20.08;54.56;100476.25;4979026;28;20042;-78
2023/07/08 04:32:51;;;;;;;10.00;5.70;;;;;;;20.11;54.58;100481.38;4987225;28;20511;-78
2023/07/08 04:35:18;;;;;;;8.55;5.65;;;;;;;20.30;54.22;100500.28;5001688;28;20050;-78
2023/07/08 04:37:47;;;;;;;8.35;5.57;;;;;;;20.36;55.40;100507.03;4993504;28;20491;-78
2023/07/08 04:40:19;;;;;;;9.88;5.97;;;;;;;20.38;56.36;100497.00;4987996;28;20056;-80
2023/07/08 04:42:47;;;;;;;8.20;5.68;;;;;;;20.17;58.00;100455.78;5024815;28;20089;-78
2023/07/08 04:45:15;;;;;;;8.23;5.82;;;;;;;20.48;58.21;100505.97;4996103;28;20422;-79
2023/07/08 04:47:42;;;;;;;9.48;5.93;;;;;;;20.42;58.32;100495.75;4989839;28;20045;-77
2023/07/08 04:50:11;;;;;;;8.80;6.30;;;;;;;20.41;58.31;100494.03;5001568;28;20053;-77
2023/07/08 04:52:37;;;;;;;8.23;5.40;;;;;;;20.53;58.97;100502.88;4991753;28;20058;-78
2023/07/08 04:55:04;;;;;;;9.63;5.85;;;;;;;20.45;56.48;100476.66;4994259;28;20049;-78
2023/07/08 04:57:37;;;;;;;10.05;5.70;;;;;;;20.51;54.94;100473.41;4985610;28;20067;-79
2023/07/08 05:00:15;;;;;;;7.80;5.75;;;;;;;20.56;54.56;100489.16;4981216;28;20046;-78
2023/07/08 05:02:42;;;;;;;8.55;6.13;;;;;;;20.67;54.26;100499.84;5003044;28;20046;-77
2023/07/08 05:05:08;;;;;;;10.75;5.97;;;;;;;20.61;53.78;100498.56;5007377;28;20104;-76
2023/07/08 05:07:35;;;;;;;7.78;5.43;;;;;;;20.68;54.68;100509.63;4981201;28;20511;-78
2023/07/08 05:10:02;;;;;;;9.38;5.78;;;;;;;20.63;53.50;100491.19;4982294;28;20137;-78
2023/07/08 05:12:29;;;;;;;7.43;5.28;;;;;;;20.66;54.17;100485.53;4985753;28;20069;-78
2023/07/08 05:14:55;;;;;;;9.65;5.65;;;;;;;20.83;53.44;100505.59;4990278;28;20113;-79
2023/07/08 05:17:22;;;;;;;7.53;5.60;;;;;;;20.84;53.27;100514.50;4983750;28;20143;-77
2023/07/08 05:19:51;;;;;;;7.95;5.05;;;;;;;20.69;53.38;100494.31;5001140;28;20058;-78
2023/07/08 05:22:18;;;;;;;7.63;5.35;;;;;;;20.63;53.16;100488.47;5000353;28;20137;-77
2023/07/08 05:24:45;;;;;;;6.65;5.32;;;;;;;20.56;53.45;100475.72;4995457;28;20061;-76
2023/07/08 05:27:14;;;;;;;9.10;5.55;;;;;;;20.73;52.48;100493.09;5009543;28;20068;-76
2023/07/08 05:29:43;;;;;;;7.00;5.43;;;;;;;20.80;51.74;100496.91;4988419;28;20057;-77
2023/07/08 05:32:09;;;;;;;9.38;5.57;;;;;;;20.83;51.18;100500.19;4985285;28;20050;-77
2023/07/08 05:34:36;;;;;;;8.30;5.22;;;;;;;20.89;51.45;100496.97;4980552;28;20045;-77
2023/07/08 05:37:03;;;;;;;7.55;5.65;;;;;;;20.91;50.80;100497.69;4986376;28;20045;-77
2023/07/08 05:39:31;;;;;;;8.85;5.25;;;;;;;21.08;51.00;100525.81;4998297;28;20068;-79
2023/07/08 05:41:57;;;;;;;9.55;5.60;;;;;;;20.94;50.85;100485.78;4988100;28;20081;-78
2023/07/08 05:44:24;;;;;;;6.32;4.95;;;;;;;21.11;51.07;100513.91;4998250;28;20056;-78
2023/07/08 05:46:51;;;;;;;7.65;5.35;;;;;;;21.23;51.02;100510.19;4982892;28;20692;-77
2023/07/08 05:49:17;;;;;;;6.95;4.78;;;;;;;21.33;51.07;100511.03;4979707;28;20561;-76
2023/07/08 05:51:45;;;;;;;9.73;5.05;;;;;;;21.49;51.11;100513.19;4980762;28;20074;-76
2023/07/08 05:54:12;;;;;;;6.72;5.03;;;;;;;21.59;50.94;100492.50;4980991;28;20177;-78
2023/07/08 05:56:39;;;;;;;9.07;5.88;;;;;;;21.84;49.40;100491.97;5003209;28;21048;-77
2023/07/08 05:59:05;;;;;;;6.30;4.78;;;;;;;21.91;49.32;100487.69;4983867;28;20126;-76
2023/07/08 06:01:33;;;;;;;6.80;4.80;;;;;;;22.09;48.82;100505.88;4979869;28;20046;-76
2023/07/08 06:04:00;;;;;;;7.88;5.22;;;;;;;22.05;48.81;100495.38;5001103;28;20045;-77
2023/07/08 06:06:27;;;;;;;5.65;4.90;;;;;;;21.84;48.23;100481.19;4989322;28;20137;-76
2023/07/08 06:08:55;;;;;;;7.07;5.43;;;;;;;22.02;48.43;100517.25;4979806;28;20072;-78
2023/07/08 06:11:22;;;;;;;7.22;5.00;;;;;;;21.96;48.12;100507.00;4980508;28;20594;-78
2023/07/08 06:13:48;;;;;;;7.82;4.70;;;;;;;21.95;48.32;100504.44;4984936;28;20126;-77
2023/07/08 06:16:15;;;;;;;8.23;5.35;;;;;;;22.03;49.77;100513.56;4984732;28;20042;-79
2023/07/08 06:18:57;;;;;;;7.35;4.82;;;;;;;22.18;49.41;100527.47;4990554;28;20125;-78
2023/07/08 06:21:24;;;;;;;8.07;5.18;;;;;;;22.23;48.84;100524.31;4981207;28;20522;-78
2023/07/08 06:23:50;;;;;;;7.90;5.43;;;;;;;22.28;48.80;100527.44;4985651;28;20050;-78
2023/07/08 06:26:17;;;;;;;6.43;4.90;;;;;;;22.24;48.89;100523.34;4983524;28;20064;-77
2023/07/08 06:28:44;;;;;;;6.45;4.85;;;;;;;22.11;49.46;100503.91;4987438;28;20038;-77
2023/07/08 06:31:11;;;;;;;6.25;4.60;;;;;;;22.15;48.95;100497.22;4984254;28;20046;-79
2023/07/08 06:33:37;;;;;;;6.68;4.88;;;;;;;22.32;49.63;100528.88;4988567;28;20049;-78
2023/07/08 06:36:04;;;;;;;7.05;5.05;;;;;;;22.37;48.86;100516.63;4982462;28;20056;-77
2023/07/08 06:38:31;;;;;;;7.35;5.10;;;;;;;22.45;49.42;100526.72;4990527;28;20157;-78
2023/07/08 06:40:57;;;;;;;6.47;4.93;;;;;;;22.60;49.27;100543.31;4981205;28;20049;-79
2023/07/08 06:43:25;;;;;;;7.05;5.47;;;;;;;22.69;49.39;100543.28;4993323;28;20048;-79
2023/07/08 06:45:51;;;;;;;9.68;5.22;;;;;;;22.49;49.67;100508.41;5007765;28;20053;-79
2023/07/08 06:48:18;;;;;;;8.13;5.30;;;;;;;22.92;49.49;100551.91;5004621;28;20053;-79
2023/07/08 06:50:48;;;;;;;7.50;5.32;;;;;;;23.00;48.79;100529.56;5017644;28;22046;-79
2023/07/08 06:53:15;;;;;;;8.73;5.07;;;;;;;23.16;50.15;100513.56;5002876;28;20050;-80
2023/07/08 06:55:44;;;;;;;10.27;5.18;;;;;;;23.33;47.50;100528.97;5007826;28;20054;-77
2023/07/08 06:58:12;;;;;;;7.53;5.07;;;;;;;23.39;46.60;100528.38;5021663;28;20078;-79
2023/07/08 07:00:43;;;;;;;8.10;5.00;;;;;;;23.32;48.01;100502.09;5000774;28;20038;-79
2023/07/08 07:03:10;;;;;;;12.10;5.72;;;;;;;23.79;47.65;100540.66;4990204;28;20771;-79
2023/07/08 07:05:38;;;;;;;8.10;4.97;;;;;;;23.94;47.10;100554.50;4992128;28;20049;-78
2023/07/08 07:08:06;;;;;;;7.53;5.07;;;;;;;23.81;46.22;100562.13;5000614;28;20041;-79
2023/07/08 07:10:33;;;;;;;7.65;5.25;;;;;;;23.63;47.00;100562.09;4979884;28;20074;-78
2023/07/08 07:13:02;;;;;;;8.63;5.87;;;;;;;23.49;46.07;100543.66;4991155;28;20045;-78
2023/07/08 07:15:30;;;;;;;8.38;5.00;;;;;;;23.63;46.28;100567.53;4995475;28;20095;-79
2023/07/08 07:17:57;;;;;;;6.72;4.93;;;;;;;23.44;46.27;100539.59;5004590;28;20653;-77
2023/07/08 07:20:25;;;;;;;6.47;4.78;;;;;;;23.30;47.21;100525.72;4997764;28;20054;-76
2023/07/08 07:22:55;;;;;;;7.60;5.30;;;;;;;23.43;47.67;100545.16;4984832;28;20056;-75
2023/07/08 07:25:22;;;;;;;8.38;4.93;;;;;;;23.70;48.24;100577.59;4986937;28;20056;-78
2023/07/08 07:27:48;;;;;;;6.53;4.95;;;;;;;23.50;47.75;100543.53;5005655;28;20153;-77
2023/07/08 07:30:15;;;;;;;5.65;4.85;;;;;;;23.82;47.09;100594.44;4989646;28;20077;-76
2023/07/08 07:32:42;;;;;;;6.25;4.75;;;;;;;23.63;47.63;100570.22;5001027;28;20049;-77
2023/07/08 07:35:14;;;;;;;15.60;5.60;;;;;;;23.64;47.01;100596.25;5001803;28;20050;-77
2023/07/08 07:37:42;;;;;;;5.85;4.65;;;;;;;23.70;47.86;100603.78;4986302;28;20124;-77
2023/07/08 07:40:12;;;;;;;6.95;5.03;;;;;;;23.77;47.52;100591.34;5000718;28;20526;-79
2023/07/08 07:42:40;;;;;;;6.72;5.07;;;;;;;23.93;47.03;100599.63;4987889;28;20038;-78
2023/07/08 07:45:08;;;;;;;11.05;5.13;;;;;;;24.02;46.21;100590.59;4993937;28;20042;-76
2023/07/08 07:47:35;;;;;;;6.78;4.45;;;;;;;24.14;45.29;100586.66;4991836;28;20070;-80
2023/07/08 07:50:04;;;;;;;6.55;4.90;;;;;;;24.28;45.72;100589.84;5006026;28;20046;-78
2023/07/08 07:52:31;;;;;;;6.45;4.32;;;;;;;24.25;45.19;100555.84;5001066;28;20058;-77
2023/07/08 07:54:57;;;;;;;6.45;4.90;;;;;;;24.54;43.98;100579.09;4993522;28;20038;-77
2023/07/08 07:57:24;;;;;;;6.10;4.88;;;;;;;24.45;43.57;100549.25;4992786;28;20069;-79
2023/07/08 07:59:51;;;;;;;7.43;4.50;;;;;;;24.70;43.29;100569.25;4986824;28;20050;-75
2023/07/08 08:02:18;;;;;;;8.07;4.68;;;;;;;24.89;43.77;100567.31;4990621;28;20042;-76
2023/07/08 08:04:45;;;;;;;5.82;4.40;;;;;;;25.13;42.87;100575.63;4987762;28;20507;-79
2023/07/08 08:07:12;;;;;;;7.38;4.80;;;;;;;25.25;41.64;100563.47;5009581;28;20046;-77
2023/07/08 08:09:39;;;;;;;5.03;4.28;;;;;;;25.40;41.50;100544.72;4984165;28;20053;-75
2023/07/08 08:12:08;;;;;;;5.72;4.30;;;;;;;25.98;40.22;100562.88;5001357;28;20041;-79
2023/07/08 08:14:35;;;;;;;7.55;4.95;;;;;;;26.43;39.66;100562.44;4991450;28;20404;-78
2023/07/08 08:17:02;;;;;;;5.13;4.60;;;;;;;26.81;38.17;100545.41;4984044;28;20038;-78
2023/07/08 08:19:29;;;;;;;6.15;4.60;;;;;;;27.13;37.03;100559.97;4988721;28;20058;-77
2023/07/08 08:21:55;;;;;;;5.75;4.45;;;;;;;27.53;37.42;100561.69;4981919;28;20130;-77
2023/07/08 08:24:22;;;;;;;6.53;4.57;;;;;;;27.83;35.94;100535.53;5007890;28;20463;-78
2023/07/08 08:26:51;;;;;;;6.35;5.20;;;;;;;27.90;37.09;100548.22;4986703;28;20046;-78
2023/07/08 08:29:17;;;;;;;6.40;4.97;;;;;;;28.30;35.43;100567.19;4990563;28;20106;-78
2023/07/08 08:31:44;;;;;;;6.72;4.82;;;;;;;28.63;34.22;100530.47;4987090;28;20046;-78
2023/07/08 08:34:11;;;;;;;6.97;5.00;;;;;;;29.37;33.44;100561.34;4989920;28;20133;-77
2023/07/08 08:36:37;;;;;;;6.78;4.85;;;;;;;29.66;32.32;100553.13;4982328;28;20581;-78
2023/07/08 08:39:04;;;;;;;6.10;4.60;;;;;;;29.61;33.10;100541.94;4988664;28;20054;-78
2023/07/08 08:41:33;;;;;;;7.82;5.13;;;;;;;29.65;33.73;100556.91;4980342;28;20499;-77
2023/07/08 08:44:02;;;;;;;8.57;5.20;;;;;;;29.65;32.71;100556.91;4990767;28;20057;-77
2023/07/08 08:47:08;;;;;;;8.13;5.10;;;;;;;29.69;32.25;100557.38;5009757;28;20099;-77
2023/07/08 08:49:43;;;;;;;7.60;5.15;;;;;;;29.57;32.89;100550.72;5003341;28;20046;-77
2023/07/08 08:52:10;;;;;;;7.35;4.97;;;;;;;29.47;32.27;100537.34;5008640;28;20657;-79
2023/07/08 08:54:38;;;;;;;10.07;5.50;;;;;;;29.55;33.11;100561.81;4991398;28;20145;-77
2023/07/08 08:57:24;;;;;;;10.63;5.68;;;;;;;29.46;32.56;100543.84;4988343;28;20050;-77
2023/07/08 08:59:55;;;;;;;10.65;5.43;;;;;;;29.17;33.47;100538.41;5005889;28;20049;-79
2023/07/08 09:02:59;;;;;;;9.30;5.30;;;;;;;29.01;34.94;100555.78;4984019;28;20426;-77
2023/07/08 09:05:26;;;;;;;10.05;5.88;;;;;;;28.62;35.02;100558.75;5006824;28;20042;-76
2023/07/08 09:08:12;;;;;;;8.63;5.82;;;;;;;28.60;35.05;100541.72;4987842;28;20470;-78
2023/07/08 09:11:10;;;;;;;9.00;5.50;;;;;;;29.11;33.45;100558.25;4985078;28;20113;-77
2023/07/08 09:13:37;;;;;;;8.25;5.43;;;;;;;29.47;33.99;100553.72;4986754;28;20137;-78
2023/07/08 09:16:20;;;;;;;7.13;5.45;;;;;;;29.64;34.14;100551.63;4989944;28;20502;-76
2023/07/08 09:18:50;;;;;;;8.23;5.75;;;;;;;29.59;32.36;100537.72;4990786;28;20112;-77
2023/07/08 09:21:24;;;;;;;9.38;5.90;;;;;;;29.46;32.87;100524.75;4980086;28;20147;-78
2023/07/08 09:23:54;;;;;;;6.72;6.00;;;;;;;29.55;33.40;100534.53;4993751;28;20458;-80
2023/07/08 09:26:24;;;;;;;6.72;5.75;;;;;;;29.59;32.83;100549.47;5008221;28;20427;-78
2023/07/08 09:28:50;;;;;;;;;;;;;;;29.44;33.45;100551.38;4991574;28;20113;-78
2023/07/08 09:31:26;;;;;;;8.10;5.82;;;;;;;28.92;33.88;100546.88;4979909;28;19925;-76
2023/07/08 09:34:13;;;;;;;9.77;6.47;;;;;;;28.82;33.49;100554.47;4988461;28;20107;-77
2023/07/08 09:36:47;;;;;;;10.20;6.68;;;;;;;28.68;33.43;100525.28;4986557;28;20529;-77
2023/07/08 09:39:16;;;;;;;9.88;7.15;;;;;;;28.63;33.11;100517.69;4991334;28;20074;-78
2023/07/08 09:41:44;;;;;;;8.13;6.15;;;;;;;28.82;34.16;100565.38;4997114;28;20041;-78
2023/07/08 09:44:29;;;;;;;8.95;6.45;;;;;;;28.78;33.23;100542.22;5007113;28;20052;-76
2023/07/08 09:46:58;;;;;;;9.80;6.72;;;;;;;28.89;33.04;100555.41;4989544;28;20049;-78
2023/07/08 09:49:33;;;;;;;8.77;6.18;;;;;;;28.90;32.46;100557.13;4986661;28;20077;-77
2023/07/08 09:52:01;;;;;;;8.48;6.28;;;;;;;28.66;32.48;100526.50;4975079;28;20089;-77
2023/07/08 09:54:28;;;;;;;7.75;6.40;;;;;;;28.82;32.26;100549.00;4999958;28;20046;-76
2023/07/08 09:56:59;;;;;;;8.05;6.20;;;;;;;28.72;31.90;100523.88;4984970;28;20128;-78
2023/07/08 09:59:31;;;;;;;8.25;6.22;;;;;;;28.82;31.70;100549.00;4987632;28;20455;-77
2023/07/08 10:02:35;;;;;;;8.52;6.10;;;;;;;28.79;31.35;100543.06;4981016;28;20061;-78
2023/07/08 10:05:14;;;;;;;8.60;6.43;;;;;;;28.74;31.83;100549.06;4991246;28;20046;-79
2023/07/08 10:07:40;;;;;;;9.88;6.22;;;;;;;28.77;31.84;100546.00;4983558;28;20053;-77
2023/07/08 10:10:14;;;;;;;10.10;6.57;;;;;;;28.78;30.88;100535.94;4982514;28;20125;-78
2023/07/08 10:12:46;;;;;;;8.40;5.80;;;;;;;28.89;30.86;100533.63;4993125;28;20137;-78
2023/07/08 10:15:42;;;;;;;9.68;6.60;;;;;;;29.15;30.12;100538.59;4988727;28;20089;-78
2023/07/08 10:18:17;;;;;;;9.45;6.55;;;;;;;29.20;30.18;100518.94;4984188;28;20050;-77
2023/07/08 10:21:14;;;;;;;9.68;6.35;;;;;;;29.23;29.81;100513.97;4985229;28;20481;-78
2023/07/08 10:23:59;;;;;;;9.90;6.22;;;;;;;29.49;30.51;100535.28;5006229;28;20053;-78
2023/07/08 10:26:32;;;;;;;10.02;6.30;;;;;;;29.56;30.34;100528.03;5009265;28;20104;-77
2023/07/08 10:29:23;;;;;;;8.48;6.28;;;;;;;29.67;28.85;100532.16;4986436;28;20080;-78
2023/07/08 10:32:20;;;;;;;8.75;6.40;;;;;;;29.72;28.59;100524.22;4975580;28;20070;-79
2023/07/08 10:34:59;;;;;;;8.63;6.43;;;;;;;29.76;29.03;100530.13;5002728;28;20053;-78
2023/07/08 10:38:11;;;;;;;8.65;6.15;;;;;;;29.79;29.28;100519.66;4985933;28;20057;-78
2023/07/08 10:40:49;;;;;;;10.02;6.60;;;;;;;29.90;30.13;100529.25;4971030;28;20712;-77
2023/07/08 10:43:32;;;;;;;9.65;6.38;;;;;;;29.72;29.30;100488.75;4994125;28;20050;-77
2023/07/08 10:46:30;;;;;;;6.90;5.90;;;;;;;29.96;30.45;100520.28;4978486;28;20045;-77
2023/07/08 10:49:24;;;;;;;10.85;6.60;;;;;;;30.04;29.78;100522.91;4977285;28;20137;-77
2023/07/08 10:52:05;;;;;;;9.65;6.55;;;;;;;30.20;30.07;100527.28;4952404;28;20042;-76
2023/07/08 10:55:13;;;;;;;9.85;6.15;;;;;;;30.31;30.15;100524.00;4997686;28;20058;-78
2023/07/08 10:58:13;;;;;;;9.05;6.78;;;;;;;30.55;29.52;100525.47;4995137;28;20038;-79
2023/07/08 11:00:46;;;;;;;8.60;6.63;;;;;;;30.73;29.80;100520.34;5014598;28;20046;-79
2023/07/08 11:03:16;;;;;;;8.07;5.90;;;;;;;30.88;29.01;100514.75;4980933;28;20507;-77
2023/07/08 11:05:46;;;;;;;9.60;6.68;;;;;;;31.00;28.78;100511.28;5007526;28;20038;-77
2023/07/08 11:08:52;;;;;;;8.57;6.00;;;;;;;31.08;28.42;100509.41;5015778;28;20040;-77
2023/07/08 11:11:29;;;;;;;8.55;5.70;;;;;;;31.05;28.20;100503.31;4961799;28;20123;-77
2023/07/08 11:14:08;;;;;;;7.70;5.57;;;;;;;31.09;27.79;100503.75;5001378;28;20060;-77
2023/07/08 11:16:47;;;;;;;8.07;5.72;;;;;;;31.04;28.19;100496.13;5024181;28;20160;-78
2023/07/08 11:19:23;;;;;;;10.55;5.90;;;;;;;30.92;28.06;100478.63;4988310;28;20115;-77
2023/07/08 11:21:53;;;;;;;8.18;6.18;;;;;;;30.92;28.09;100469.56;5008914;28;20604;-78
2023/07/08 11:24:32;;;;;;;7.40;5.30;;;;;;;31.17;28.05;100505.53;5013720;28;20466;-77
2023/07/08 11:27:18;;;;;;;8.00;5.25;;;;;;;31.13;27.61;100480.44;4994099;28;20072;-81
2023/07/08 11:29:50;;;;;;;8.57;5.53;;;;;;;31.33;27.82;100500.50;5005229;28;20049;-79
2023/07/08 11:32:22;;;;;;;9.48;5.60;;;;;;;31.13;27.13;100455.00;4993743;28;20153;-78
2023/07/08 11:34:51;;;;;;;9.25;5.30;;;;;;;31.21;27.37;100474.78;4986086;28;20050;-78
2023/07/08 11:37:18;;;;;;;;;;;;;;;31.34;27.75;100495.88;4986409;28;20038;-79
2023/07/08 11:39:46;;;;;;;7.30;5.07;;;;;;;31.32;27.28;100484.31;5007423;28;19925;-77
2023/07/08 11:42:15;;;;;;;8.18;5.32;;;;;;;31.45;27.40;100491.72;4985709;28;20568;-79
2023/07/08 11:44:47;;;;;;;8.93;5.63;;;;;;;31.46;27.36;100486.06;4989356;28;20431;-78